sensor_id;sensor_type;location;lat;lon;timestamp;temperature;humidity
14409;DHT22;7289;50.706;4.992;2022-10-15T00:01:33;15.80;99.90
14409;DHT22;7289;50.706;4.992;2022-10-15T00:04:02;15.80;99.90
14409;DHT22;7289;50.706;4.992;2022-10-15T00:06:31;15.70;99.90
14409;DHT22;7289;50.706;4.992;2022-10-15T00:09:00;15.70;99.90
14409;DHT22;7289;50.706;4.992;2022-10-15T00:11:28;15.70;99.90
14409;DHT22;7289;50.706;4.992;2022-10-15T00:13:58;15.70;99.90
14409;DHT22;7289;50.706;4.992;2022-10-15T00:16:28;15.80;99.90
14409;DHT22;7289;50.706;4.992;2022-10-15T00:18:57;15.70;99.90
14409;DHT22;7289;50.706;4.992;2022-10-15T00:21:28;15.70;99.90
14409;DHT22;7289;50.706;4.992;2022-10-15T00:23:56;15.70;99.90
14409;DHT22;7289;50.706;4.992;2022-10-15T00:26:26;15.70;99.90
14409;DHT22;7289;50.706;4.992;2022-10-15T00:28:56;15.70;99.90
14409;DHT22;7289;50.706;4.992;2022-10-15T00:31:26;15.70;99.90
14409;DHT22;7289;50.706;4.992;2022-10-15T00:33:57;15.70;99.90
14409;DHT22;7289;50.706;4.992;2022-10-15T00:36:29;15.80;99.90
14409;DHT22;7289;50.706;4.992;2022-10-15T00:38:58;15.70;99.90
14409;DHT22;7289;50.706;4.992;2022-10-15T00:41:28;15.80;99.90
14409;DHT22;7289;50.706;4.992;2022-10-15T00:43:58;15.70;99.90
14409;DHT22;7289;50.706;4.992;2022-10-15T00:46:30;15.70;99.90
14409;DHT22;7289;50.706;4.992;2022-10-15T00:49:02;15.70;99.90
14409;DHT22;7289;50.706;4.992;2022-10-15T00:51:41;15.80;99.90
14409;DHT22;7289;50.706;4.992;2022-10-15T00:54:10;15.80;99.90
14409;DHT22;7289;50.706;4.992;2022-10-15T00:56:41;15.80;99.90
14409;DHT22;7289;50.706;4.992;2022-10-15T00:59:11;15.80;99.90
14409;DHT22;7289;50.706;4.992;2022-10-15T01:01:40;15.80;99.90
14409;DHT22;7289;50.706;4.992;2022-10-15T01:04:08;15.80;99.90
14409;DHT22;7289;50.706;4.992;2022-10-15T01:06:39;15.80;99.90
14409;DHT22;7289;50.706;4.992;2022-10-15T01:09:08;15.80;99.90
14409;DHT22;7289;50.706;4.992;2022-10-15T01:11:40;15.80;99.90
14409;DHT22;7289;50.706;4.992;2022-10-15T01:14:23;15.80;99.90
14409;DHT22;7289;50.706;4.992;2022-10-15T01:17:01;15.70;99.90
14409;DHT22;7289;50.706;4.992;2022-10-15T01:19:59;15.80;99.90
14409;DHT22;7289;50.706;4.992;2022-10-15T01:22:48;15.70;99.90
14409;DHT22;7289;50.706;4.992;2022-10-15T01:25:28;15.70;99.90
14409;DHT22;7289;50.706;4.992;2022-10-15T01:28:08;15.70;99.90
14409;DHT22;7289;50.706;4.992;2022-10-15T01:30:47;15.70;99.90
14409;DHT22;7289;50.706;4.992;2022-10-15T01:33:27;15.70;99.90
14409;DHT22;7289;50.706;4.992;2022-10-15T01:36:06;15.60;99.90
14409;DHT22;7289;50.706;4.992;2022-10-15T01:38:45;15.60;99.90
14409;DHT22;7289;50.706;4.992;2022-10-15T01:41:18;15.60;99.90
14409;DHT22;7289;50.706;4.992;2022-10-15T01:43:54;15.60;99.90
14409;DHT22;7289;50.706;4.992;2022-10-15T01:46:45;15.70;99.90
14409;DHT22;7289;50.706;4.992;2022-10-15T01:49:21;15.70;99.90
14409;DHT22;7289;50.706;4.992;2022-10-15T01:51:53;15.70;99.90
14409;DHT22;7289;50.706;4.992;2022-10-15T01:54:24;15.80;99.90
14409;DHT22;7289;50.706;4.992;2022-10-15T01:56:54;15.70;99.90
14409;DHT22;7289;50.706;4.992;2022-10-15T01:59:26;15.70;99.90
14409;DHT22;7289;50.706;4.992;2022-10-15T02:01:56;15.80;99.90
14409;DHT22;7289;50.706;4.992;2022-10-15T02:04:26;15.70;99.90
14409;DHT22;7289;50.706;4.992;2022-10-15T02:07:01;15.70;99.90
14409;DHT22;7289;50.706;4.992;2022-10-15T02:09:41;15.70;99.90
14409;DHT22;7289;50.706;4.992;2022-10-15T02:12:27;15.70;99.90
14409;DHT22;7289;50.706;4.992;2022-10-15T02:15:02;15.70;99.90
14409;DHT22;7289;50.706;4.992;2022-10-15T02:17:39;15.70;99.90
14409;DHT22;7289;50.706;4.992;2022-10-15T02:20:12;15.70;99.90
14409;DHT22;7289;50.706;4.992;2022-10-15T02:22:46;15.70;99.90
14409;DHT22;7289;50.706;4.992;2022-10-15T02:25:19;15.70;99.90
14409;DHT22;7289;50.706;4.992;2022-10-15T02:27:51;15.80;99.90
14409;DHT22;7289;50.706;4.992;2022-10-15T02:30:21;15.80;99.90
14409;DHT22;7289;50.706;4.992;2022-10-15T02:32:53;15.80;99.90
14409;DHT22;7289;50.706;4.992;2022-10-15T02:35:23;15.80;99.90
14409;DHT22;7289;50.706;4.992;2022-10-15T02:37:54;15.80;99.90
14409;DHT22;7289;50.706;4.992;2022-10-15T02:40:27;15.80;99.90
14409;DHT22;7289;50.706;4.992;2022-10-15T02:42:56;15.80;99.90
14409;DHT22;7289;50.706;4.992;2022-10-15T02:45:24;15.80;99.90
14409;DHT22;7289;50.706;4.992;2022-10-15T02:47:54;15.80;99.90
14409;DHT22;7289;50.706;4.992;2022-10-15T02:50:23;15.80;99.90
14409;DHT22;7289;50.706;4.992;2022-10-15T02:52:52;15.80;99.90
14409;DHT22;7289;50.706;4.992;2022-10-15T02:55:20;15.80;99.90
14409;DHT22;7289;50.706;4.992;2022-10-15T02:57:48;15.80;99.90
14409;DHT22;7289;50.706;4.992;2022-10-15T03:00:17;15.80;99.90
14409;DHT22;7289;50.706;4.992;2022-10-15T03:02:48;15.70;99.90
14409;DHT22;7289;50.706;4.992;2022-10-15T03:05:19;15.70;99.90
14409;DHT22;7289;50.706;4.992;2022-10-15T03:07:48;15.80;99.90
14409;DHT22;7289;50.706;4.992;2022-10-15T03:10:18;15.70;99.90
14409;DHT22;7289;50.706;4.992;2022-10-15T03:12:46;15.70;99.90
14409;DHT22;7289;50.706;4.992;2022-10-15T03:15:15;15.70;99.90
14409;DHT22;7289;50.706;4.992;2022-10-15T03:17:45;15.70;99.90
14409;DHT22;7289;50.706;4.992;2022-10-15T03:20:16;15.70;99.90
14409;DHT22;7289;50.706;4.992;2022-10-15T03:22:46;15.70;99.90
14409;DHT22;7289;50.706;4.992;2022-10-15T03:25:15;15.70;99.90
14409;DHT22;7289;50.706;4.992;2022-10-15T03:27:43;15.70;99.90
14409;DHT22;7289;50.706;4.992;2022-10-15T03:30:22;15.70;99.90
14409;DHT22;7289;50.706;4.992;2022-10-15T03:32:51;15.70;99.90
14409;DHT22;7289;50.706;4.992;2022-10-15T03:35:19;15.70;99.90
14409;DHT22;7289;50.706;4.992;2022-10-15T03:37:49;15.70;99.90
14409;DHT22;7289;50.706;4.992;2022-10-15T03:40:18;15.70;99.90
14409;DHT22;7289;50.706;4.992;2022-10-15T03:42:49;15.70;99.90
14409;DHT22;7289;50.706;4.992;2022-10-15T03:45:20;15.60;99.90
14409;DHT22;7289;50.706;4.992;2022-10-15T03:47:55;15.70;99.90
14409;DHT22;7289;50.706;4.992;2022-10-15T03:50:27;15.70;99.90
14409;DHT22;7289;50.706;4.992;2022-10-15T03:53:03;15.70;99.90
14409;DHT22;7289;50.706;4.992;2022-10-15T03:55:32;15.70;99.90
14409;DHT22;7289;50.706;4.992;2022-10-15T03:58:01;15.60;99.90
14409;DHT22;7289;50.706;4.992;2022-10-15T04:00:29;15.70;99.90
14409;DHT22;7289;50.706;4.992;2022-10-15T04:03:01;15.70;99.90
14409;DHT22;7289;50.706;4.992;2022-10-15T04:05:29;15.60;99.90
14409;DHT22;7289;50.706;4.992;2022-10-15T04:08:04;15.70;99.90
14409;DHT22;7289;50.706;4.992;2022-10-15T04:10:36;15.60;99.90
14409;DHT22;7289;50.706;4.992;2022-10-15T04:13:06;15.60;99.90
14409;DHT22;7289;50.706;4.992;2022-10-15T04:15:37;15.60;99.90
14409;DHT22;7289;50.706;4.992;2022-10-15T04:18:09;15.70;99.90
14409;DHT22;7289;50.706;4.992;2022-10-15T04:20:39;15.70;99.90
14409;DHT22;7289;50.706;4.992;2022-10-15T04:23:16;15.70;99.90
14409;DHT22;7289;50.706;4.992;2022-10-15T04:26:04;15.70;99.90
14409;DHT22;7289;50.706;4.992;2022-10-15T04:28:33;15.70;99.90
14409;DHT22;7289;50.706;4.992;2022-10-15T04:31:01;15.70;99.90
14409;DHT22;7289;50.706;4.992;2022-10-15T04:33:30;15.70;99.90
14409;DHT22;7289;50.706;4.992;2022-10-15T04:36:00;15.70;99.90
14409;DHT22;7289;50.706;4.992;2022-10-15T04:38:45;15.80;99.90
14409;DHT22;7289;50.706;4.992;2022-10-15T04:41:19;15.70;99.90
14409;DHT22;7289;50.706;4.992;2022-10-15T04:43:56;15.70;99.90
14409;DHT22;7289;50.706;4.992;2022-10-15T04:46:25;15.60;99.90
14409;DHT22;7289;50.706;4.992;2022-10-15T04:48:56;15.60;99.90
14409;DHT22;7289;50.706;4.992;2022-10-15T04:51:25;15.50;99.90
14409;DHT22;7289;50.706;4.992;2022-10-15T04:54:02;15.50;99.90
14409;DHT22;7289;50.706;4.992;2022-10-15T04:56:32;15.40;99.90
14409;DHT22;7289;50.706;4.992;2022-10-15T04:59:00;15.40;99.90
14409;DHT22;7289;50.706;4.992;2022-10-15T05:01:31;15.40;99.90
14409;DHT22;7289;50.706;4.992;2022-10-15T05:04:05;15.30;99.90
14409;DHT22;7289;50.706;4.992;2022-10-15T05:06:36;15.30;99.90
14409;DHT22;7289;50.706;4.992;2022-10-15T05:09:16;15.30;99.90
14409;DHT22;7289;50.706;4.992;2022-10-15T05:11:50;15.40;99.90
14409;DHT22;7289;50.706;4.992;2022-10-15T05:14:19;15.40;99.90
14409;DHT22;7289;50.706;4.992;2022-10-15T05:17:03;15.40;99.90
14409;DHT22;7289;50.706;4.992;2022-10-15T05:19:38;15.40;99.90
14409;DHT22;7289;50.706;4.992;2022-10-15T05:22:13;15.40;99.90
14409;DHT22;7289;50.706;4.992;2022-10-15T05:24:49;15.30;99.90
14409;DHT22;7289;50.706;4.992;2022-10-15T05:27:31;15.30;99.90
14409;DHT22;7289;50.706;4.992;2022-10-15T05:30:01;15.30;99.90
14409;DHT22;7289;50.706;4.992;2022-10-15T05:32:50;15.30;99.90
14409;DHT22;7289;50.706;4.992;2022-10-15T05:35:20;15.30;99.90
14409;DHT22;7289;50.706;4.992;2022-10-15T05:37:54;15.20;99.90
14409;DHT22;7289;50.706;4.992;2022-10-15T05:40:24;15.20;99.90
14409;DHT22;7289;50.706;4.992;2022-10-15T05:43:08;15.30;99.90
14409;DHT22;7289;50.706;4.992;2022-10-15T05:45:37;15.20;99.90
14409;DHT22;7289;50.706;4.992;2022-10-15T05:48:06;15.20;99.90
14409;DHT22;7289;50.706;4.992;2022-10-15T05:50:35;15.20;99.90
14409;DHT22;7289;50.706;4.992;2022-10-15T05:53:07;15.20;99.90
14409;DHT22;7289;50.706;4.992;2022-10-15T05:55:36;15.20;99.90
14409;DHT22;7289;50.706;4.992;2022-10-15T05:58:05;15.30;99.90
14409;DHT22;7289;50.706;4.992;2022-10-15T06:00:34;15.30;99.90
14409;DHT22;7289;50.706;4.992;2022-10-15T06:03:02;15.30;99.90
14409;DHT22;7289;50.706;4.992;2022-10-15T06:05:31;15.20;99.90
14409;DHT22;7289;50.706;4.992;2022-10-15T06:07:59;15.30;99.90
14409;DHT22;7289;50.706;4.992;2022-10-15T06:10:27;15.30;99.90
14409;DHT22;7289;50.706;4.992;2022-10-15T06:12:58;15.40;99.90
14409;DHT22;7289;50.706;4.992;2022-10-15T06:15:26;15.40;99.90
14409;DHT22;7289;50.706;4.992;2022-10-15T06:17:54;15.40;99.90
14409;DHT22;7289;50.706;4.992;2022-10-15T06:20:22;15.40;99.90
14409;DHT22;7289;50.706;4.992;2022-10-15T06:22:54;15.40;99.90
14409;DHT22;7289;50.706;4.992;2022-10-15T06:25:23;15.40;99.90
14409;DHT22;7289;50.706;4.992;2022-10-15T06:27:52;15.50;99.90
14409;DHT22;7289;50.706;4.992;2022-10-15T06:30:24;15.50;99.90
14409;DHT22;7289;50.706;4.992;2022-10-15T06:32:53;15.50;99.90
14409;DHT22;7289;50.706;4.992;2022-10-15T06:35:22;15.50;99.90
14409;DHT22;7289;50.706;4.992;2022-10-15T06:37:50;15.50;99.90
14409;DHT22;7289;50.706;4.992;2022-10-15T06:40:19;15.50;99.90
14409;DHT22;7289;50.706;4.992;2022-10-15T06:42:47;15.60;99.90
14409;DHT22;7289;50.706;4.992;2022-10-15T06:45:15;15.60;99.90
14409;DHT22;7289;50.706;4.992;2022-10-15T06:47:49;15.70;99.90
14409;DHT22;7289;50.706;4.992;2022-10-15T06:50:17;15.70;99.90
14409;DHT22;7289;50.706;4.992;2022-10-15T06:52:45;15.60;99.90
14409;DHT22;7289;50.706;4.992;2022-10-15T06:55:14;15.70;99.90
14409;DHT22;7289;50.706;4.992;2022-10-15T06:57:42;15.60;99.90
14409;DHT22;7289;50.706;4.992;2022-10-15T07:00:15;15.70;99.90
14409;DHT22;7289;50.706;4.992;2022-10-15T07:02:43;15.70;99.90
14409;DHT22;7289;50.706;4.992;2022-10-15T07:05:13;15.80;99.90
14409;DHT22;7289;50.706;4.992;2022-10-15T07:07:41;15.90;99.90
14409;DHT22;7289;50.706;4.992;2022-10-15T07:10:11;16.00;99.90
14409;DHT22;7289;50.706;4.992;2022-10-15T07:12:41;16.10;99.90
14409;DHT22;7289;50.706;4.992;2022-10-15T07:15:09;16.20;99.90
14409;DHT22;7289;50.706;4.992;2022-10-15T07:17:38;16.40;99.90
14409;DHT22;7289;50.706;4.992;2022-10-15T07:20:07;16.50;99.90
14409;DHT22;7289;50.706;4.992;2022-10-15T07:22:37;16.70;99.90
14409;DHT22;7289;50.706;4.992;2022-10-15T07:25:06;16.80;99.90
14409;DHT22;7289;50.706;4.992;2022-10-15T07:27:35;16.80;99.90
14409;DHT22;7289;50.706;4.992;2022-10-15T07:30:05;16.90;99.90
14409;DHT22;7289;50.706;4.992;2022-10-15T07:32:34;16.90;99.90
14409;DHT22;7289;50.706;4.992;2022-10-15T07:35:03;16.90;99.90
14409;DHT22;7289;50.706;4.992;2022-10-15T07:37:32;17.00;99.90
14409;DHT22;7289;50.706;4.992;2022-10-15T07:40:01;17.20;99.90
14409;DHT22;7289;50.706;4.992;2022-10-15T07:42:33;17.30;99.90
14409;DHT22;7289;50.706;4.992;2022-10-15T07:45:01;17.30;99.90
14409;DHT22;7289;50.706;4.992;2022-10-15T07:47:30;17.20;99.90
14409;DHT22;7289;50.706;4.992;2022-10-15T07:49:58;17.30;99.90
14409;DHT22;7289;50.706;4.992;2022-10-15T07:52:26;17.50;99.90
14409;DHT22;7289;50.706;4.992;2022-10-15T07:54:55;17.70;99.90
14409;DHT22;7289;50.706;4.992;2022-10-15T07:57:24;17.80;99.90
14409;DHT22;7289;50.706;4.992;2022-10-15T07:59:52;17.90;99.90
14409;DHT22;7289;50.706;4.992;2022-10-15T08:02:21;17.90;99.90
14409;DHT22;7289;50.706;4.992;2022-10-15T08:04:49;17.90;99.90
14409;DHT22;7289;50.706;4.992;2022-10-15T08:07:18;17.80;99.90
14409;DHT22;7289;50.706;4.992;2022-10-15T08:09:46;17.80;99.90
14409;DHT22;7289;50.706;4.992;2022-10-15T08:12:14;17.80;99.90
14409;DHT22;7289;50.706;4.992;2022-10-15T08:14:45;17.70;99.90
14409;DHT22;7289;50.706;4.992;2022-10-15T08:17:14;17.70;99.90
14409;DHT22;7289;50.706;4.992;2022-10-15T08:19:42;17.70;99.90
14409;DHT22;7289;50.706;4.992;2022-10-15T08:22:10;17.70;99.90
14409;DHT22;7289;50.706;4.992;2022-10-15T08:24:39;17.80;99.90
14409;DHT22;7289;50.706;4.992;2022-10-15T08:27:07;17.80;99.90
14409;DHT22;7289;50.706;4.992;2022-10-15T08:29:36;17.90;99.90
14409;DHT22;7289;50.706;4.992;2022-10-15T08:32:06;18.00;99.90
14409;DHT22;7289;50.706;4.992;2022-10-15T08:34:35;18.00;99.90
14409;DHT22;7289;50.706;4.992;2022-10-15T08:37:03;18.10;99.90
14409;DHT22;7289;50.706;4.992;2022-10-15T08:39:32;18.30;99.90
14409;DHT22;7289;50.706;4.992;2022-10-15T08:42:02;18.50;99.90
14409;DHT22;7289;50.706;4.992;2022-10-15T08:44:40;18.60;99.90
14409;DHT22;7289;50.706;4.992;2022-10-15T08:47:17;18.60;99.90
14409;DHT22;7289;50.706;4.992;2022-10-15T08:49:50;18.70;99.90
14409;DHT22;7289;50.706;4.992;2022-10-15T08:52:24;18.70;99.90
14409;DHT22;7289;50.706;4.992;2022-10-15T08:54:54;18.80;99.90
14409;DHT22;7289;50.706;4.992;2022-10-15T08:57:34;18.90;99.90
14409;DHT22;7289;50.706;4.992;2022-10-15T09:00:12;19.00;99.90
14409;DHT22;7289;50.706;4.992;2022-10-15T09:02:47;19.00;99.90
14409;DHT22;7289;50.706;4.992;2022-10-15T09:05:28;19.30;99.90
14409;DHT22;7289;50.706;4.992;2022-10-15T09:08:05;19.30;99.90
14409;DHT22;7289;50.706;4.992;2022-10-15T09:10:40;19.40;99.90
14409;DHT22;7289;50.706;4.992;2022-10-15T09:13:13;19.50;99.90
14409;DHT22;7289;50.706;4.992;2022-10-15T09:15:47;19.60;99.90
14409;DHT22;7289;50.706;4.992;2022-10-15T09:18:21;19.70;99.90
14409;DHT22;7289;50.706;4.992;2022-10-15T09:20:50;19.90;99.90
14409;DHT22;7289;50.706;4.992;2022-10-15T09:23:21;19.90;99.90
14409;DHT22;7289;50.706;4.992;2022-10-15T09:25:56;20.20;99.90
14409;DHT22;7289;50.706;4.992;2022-10-15T09:28:31;20.20;99.90
14409;DHT22;7289;50.706;4.992;2022-10-15T09:31:04;20.10;99.90
14409;DHT22;7289;50.706;4.992;2022-10-15T09:33:39;20.20;99.90
14409;DHT22;7289;50.706;4.992;2022-10-15T09:36:26;20.10;99.90
14409;DHT22;7289;50.706;4.992;2022-10-15T09:39:17;19.90;99.90
14409;DHT22;7289;50.706;4.992;2022-10-15T09:41:55;19.70;99.90
14409;DHT22;7289;50.706;4.992;2022-10-15T09:44:31;19.60;99.90
14409;DHT22;7289;50.706;4.992;2022-10-15T09:47:01;19.80;99.90
14409;DHT22;7289;50.706;4.992;2022-10-15T09:49:42;20.00;99.90
14409;DHT22;7289;50.706;4.992;2022-10-15T09:52:15;20.00;99.90
14409;DHT22;7289;50.706;4.992;2022-10-15T09:54:51;20.20;99.90
14409;DHT22;7289;50.706;4.992;2022-10-15T09:57:24;20.50;99.90
14409;DHT22;7289;50.706;4.992;2022-10-15T09:59:54;20.60;99.90
14409;DHT22;7289;50.706;4.992;2022-10-15T10:02:24;20.70;99.90
14409;DHT22;7289;50.706;4.992;2022-10-15T10:04:55;20.80;99.90
14409;DHT22;7289;50.706;4.992;2022-10-15T10:07:29;20.90;99.90
14409;DHT22;7289;50.706;4.992;2022-10-15T10:10:00;21.10;99.90
14409;DHT22;7289;50.706;4.992;2022-10-15T10:12:31;21.30;99.90
14409;DHT22;7289;50.706;4.992;2022-10-15T10:15:03;21.30;99.90
14409;DHT22;7289;50.706;4.992;2022-10-15T10:17:32;21.40;99.90
14409;DHT22;7289;50.706;4.992;2022-10-15T10:20:15;21.60;99.90
14409;DHT22;7289;50.706;4.992;2022-10-15T10:22:45;21.60;99.90
14409;DHT22;7289;50.706;4.992;2022-10-15T10:25:33;21.30;99.90
14409;DHT22;7289;50.706;4.992;2022-10-15T10:28:11;21.20;99.90
14409;DHT22;7289;50.706;4.992;2022-10-15T10:30:51;21.20;99.90
14409;DHT22;7289;50.706;4.992;2022-10-15T10:33:24;21.10;99.90
14409;DHT22;7289;50.706;4.992;2022-10-15T10:35:56;21.10;99.90
14409;DHT22;7289;50.706;4.992;2022-10-15T10:38:26;20.90;99.90
14409;DHT22;7289;50.706;4.992;2022-10-15T10:40:58;21.10;99.90
14409;DHT22;7289;50.706;4.992;2022-10-15T10:43:32;21.10;99.90
14409;DHT22;7289;50.706;4.992;2022-10-15T10:46:16;21.20;99.90
14409;DHT22;7289;50.706;4.992;2022-10-15T10:48:48;21.30;99.90
14409;DHT22;7289;50.706;4.992;2022-10-15T10:51:20;21.50;99.90
14409;DHT22;7289;50.706;4.992;2022-10-15T10:53:55;21.50;99.90
14409;DHT22;7289;50.706;4.992;2022-10-15T10:56:27;21.70;99.90
14409;DHT22;7289;50.706;4.992;2022-10-15T10:58:59;21.70;99.90
14409;DHT22;7289;50.706;4.992;2022-10-15T11:01:28;21.90;99.90
14409;DHT22;7289;50.706;4.992;2022-10-15T11:03:57;22.20;99.90
14409;DHT22;7289;50.706;4.992;2022-10-15T11:06:46;22.30;99.90
14409;DHT22;7289;50.706;4.992;2022-10-15T11:09:37;22.60;99.90
14409;DHT22;7289;50.706;4.992;2022-10-15T11:12:29;22.80;99.90
14409;DHT22;7289;50.706;4.992;2022-10-15T11:15:12;22.80;99.90
14409;DHT22;7289;50.706;4.992;2022-10-15T11:17:49;22.80;99.90
14409;DHT22;7289;50.706;4.992;2022-10-15T11:20:24;22.70;99.90
14409;DHT22;7289;50.706;4.992;2022-10-15T11:23:25;22.70;99.90
14409;DHT22;7289;50.706;4.992;2022-10-15T11:25:58;22.80;99.90
14409;DHT22;7289;50.706;4.992;2022-10-15T11:28:41;22.80;99.90
14409;DHT22;7289;50.706;4.992;2022-10-15T11:31:19;22.90;99.90
14409;DHT22;7289;50.706;4.992;2022-10-15T11:34:02;23.00;99.90
14409;DHT22;7289;50.706;4.992;2022-10-15T11:36:49;22.90;99.90
14409;DHT22;7289;50.706;4.992;2022-10-15T11:39:41;22.80;99.90
14409;DHT22;7289;50.706;4.992;2022-10-15T11:42:16;22.80;99.90
14409;DHT22;7289;50.706;4.992;2022-10-15T11:44:59;23.00;99.90
14409;DHT22;7289;50.706;4.992;2022-10-15T11:47:39;23.10;99.90
14409;DHT22;7289;50.706;4.992;2022-10-15T11:50:19;23.10;99.90
14409;DHT22;7289;50.706;4.992;2022-10-15T11:53:00;23.10;99.90
14409;DHT22;7289;50.706;4.992;2022-10-15T11:55:37;23.00;99.90
14409;DHT22;7289;50.706;4.992;2022-10-15T11:58:11;22.80;99.90
14409;DHT22;7289;50.706;4.992;2022-10-15T12:00:45;22.70;99.90
14409;DHT22;7289;50.706;4.992;2022-10-15T12:03:20;22.40;99.90
14409;DHT22;7289;50.706;4.992;2022-10-15T12:05:53;22.10;99.90
14409;DHT22;7289;50.706;4.992;2022-10-15T12:08:23;21.80;99.90
14409;DHT22;7289;50.706;4.992;2022-10-15T12:11:07;21.70;99.90
14409;DHT22;7289;50.706;4.992;2022-10-15T12:13:40;21.70;99.90
14409;DHT22;7289;50.706;4.992;2022-10-15T12:16:21;21.60;99.90
14409;DHT22;7289;50.706;4.992;2022-10-15T12:18:59;21.90;99.90
14409;DHT22;7289;50.706;4.992;2022-10-15T12:21:32;22.00;99.90
14409;DHT22;7289;50.706;4.992;2022-10-15T12:24:01;22.20;99.90
14409;DHT22;7289;50.706;4.992;2022-10-15T12:26:32;22.40;99.90
14409;DHT22;7289;50.706;4.992;2022-10-15T12:29:04;22.70;99.90
14409;DHT22;7289;50.706;4.992;2022-10-15T12:31:44;22.60;99.90
14409;DHT22;7289;50.706;4.992;2022-10-15T12:34:28;22.60;99.90
14409;DHT22;7289;50.706;4.992;2022-10-15T12:37:05;22.70;99.90
14409;DHT22;7289;50.706;4.992;2022-10-15T12:39:40;22.50;99.90
14409;DHT22;7289;50.706;4.992;2022-10-15T12:42:28;22.10;99.90
14409;DHT22;7289;50.706;4.992;2022-10-15T12:44:59;21.60;99.90
14409;DHT22;7289;50.706;4.992;2022-10-15T12:47:46;21.30;99.90
14409;DHT22;7289;50.706;4.992;2022-10-15T12:50:18;21.00;99.90
14409;DHT22;7289;50.706;4.992;2022-10-15T12:52:58;20.60;99.90
14409;DHT22;7289;50.706;4.992;2022-10-15T12:55:31;20.10;99.90
14409;DHT22;7289;50.706;4.992;2022-10-15T12:58:29;19.80;99.90
14409;DHT22;7289;50.706;4.992;2022-10-15T13:01:04;19.70;99.90
14409;DHT22;7289;50.706;4.992;2022-10-15T13:03:37;19.60;99.90
14409;DHT22;7289;50.706;4.992;2022-10-15T13:06:26;19.80;99.90
14409;DHT22;7289;50.706;4.992;2022-10-15T13:09:04;19.80;99.90
14409;DHT22;7289;50.706;4.992;2022-10-15T13:11:36;19.90;99.90
14409;DHT22;7289;50.706;4.992;2022-10-15T13:14:17;20.10;99.90
14409;DHT22;7289;50.706;4.992;2022-10-15T13:16:48;20.30;99.90
14409;DHT22;7289;50.706;4.992;2022-10-15T13:19:17;20.40;99.90
14409;DHT22;7289;50.706;4.992;2022-10-15T13:21:47;20.50;99.90
14409;DHT22;7289;50.706;4.992;2022-10-15T13:24:21;20.40;99.90
14409;DHT22;7289;50.706;4.992;2022-10-15T13:26:50;20.50;99.90
14409;DHT22;7289;50.706;4.992;2022-10-15T13:29:21;20.60;99.90
14409;DHT22;7289;50.706;4.992;2022-10-15T13:31:50;20.70;99.90
14409;DHT22;7289;50.706;4.992;2022-10-15T13:34:26;20.70;99.90
14409;DHT22;7289;50.706;4.992;2022-10-15T13:36:56;20.60;99.90
14409;DHT22;7289;50.706;4.992;2022-10-15T13:39:31;20.40;99.90
14409;DHT22;7289;50.706;4.992;2022-10-15T13:42:08;20.30;99.90
14409;DHT22;7289;50.706;4.992;2022-10-15T13:44:39;20.40;99.90
14409;DHT22;7289;50.706;4.992;2022-10-15T13:47:24;20.30;99.90
14409;DHT22;7289;50.706;4.992;2022-10-15T13:50:15;20.10;99.90
14409;DHT22;7289;50.706;4.992;2022-10-15T13:52:47;20.00;99.90
14409;DHT22;7289;50.706;4.992;2022-10-15T13:55:20;20.10;99.90
14409;DHT22;7289;50.706;4.992;2022-10-15T13:57:51;19.80;99.90
14409;DHT22;7289;50.706;4.992;2022-10-15T14:00:29;19.70;99.90
14409;DHT22;7289;50.706;4.992;2022-10-15T14:03:16;19.40;99.90
14409;DHT22;7289;50.706;4.992;2022-10-15T14:05:46;19.20;99.90
14409;DHT22;7289;50.706;4.992;2022-10-15T14:08:17;19.20;99.90
14409;DHT22;7289;50.706;4.992;2022-10-15T14:10:46;19.30;99.90
14409;DHT22;7289;50.706;4.992;2022-10-15T14:13:15;19.40;99.90
14409;DHT22;7289;50.706;4.992;2022-10-15T14:15:58;19.60;99.90
14409;DHT22;7289;50.706;4.992;2022-10-15T14:18:34;19.60;99.90
14409;DHT22;7289;50.706;4.992;2022-10-15T14:21:09;19.90;99.90
14409;DHT22;7289;50.706;4.992;2022-10-15T14:23:39;19.90;99.90
14409;DHT22;7289;50.706;4.992;2022-10-15T14:26:09;20.00;99.90
14409;DHT22;7289;50.706;4.992;2022-10-15T14:28:39;20.00;99.90
14409;DHT22;7289;50.706;4.992;2022-10-15T14:31:28;20.00;99.90
14409;DHT22;7289;50.706;4.992;2022-10-15T14:33:56;20.00;99.90
14409;DHT22;7289;50.706;4.992;2022-10-15T14:36:26;20.00;99.90
14409;DHT22;7289;50.706;4.992;2022-10-15T14:39:26;20.10;99.90
14409;DHT22;7289;50.706;4.992;2022-10-15T14:41:59;20.10;99.90
14409;DHT22;7289;50.706;4.992;2022-10-15T14:44:40;20.10;99.90
14409;DHT22;7289;50.706;4.992;2022-10-15T14:47:17;20.10;99.90
14409;DHT22;7289;50.706;4.992;2022-10-15T14:49:47;20.10;99.90
14409;DHT22;7289;50.706;4.992;2022-10-15T14:52:16;20.00;99.90
14409;DHT22;7289;50.706;4.992;2022-10-15T14:54:58;20.00;99.90
14409;DHT22;7289;50.706;4.992;2022-10-15T14:57:29;19.70;99.90
14409;DHT22;7289;50.706;4.992;2022-10-15T14:59:59;19.70;99.90
14409;DHT22;7289;50.706;4.992;2022-10-15T15:02:29;19.60;99.90
14409;DHT22;7289;50.706;4.992;2022-10-15T15:05:13;19.50;99.90
14409;DHT22;7289;50.706;4.992;2022-10-15T15:07:44;19.40;99.90
14409;DHT22;7289;50.706;4.992;2022-10-15T15:10:15;19.40;99.90
14409;DHT22;7289;50.706;4.992;2022-10-15T15:12:45;19.50;99.90
14409;DHT22;7289;50.706;4.992;2022-10-15T15:15:17;19.50;99.90
14409;DHT22;7289;50.706;4.992;2022-10-15T15:17:46;19.60;99.90
14409;DHT22;7289;50.706;4.992;2022-10-15T15:20:16;19.60;99.90
14409;DHT22;7289;50.706;4.992;2022-10-15T15:22:47;19.70;99.90
14409;DHT22;7289;50.706;4.992;2022-10-15T15:25:19;19.70;99.90
14409;DHT22;7289;50.706;4.992;2022-10-15T15:27:48;19.70;99.90
14409;DHT22;7289;50.706;4.992;2022-10-15T15:30:20;19.70;99.90
14409;DHT22;7289;50.706;4.992;2022-10-15T15:32:48;19.70;99.90
14409;DHT22;7289;50.706;4.992;2022-10-15T15:35:22;19.80;99.90
14409;DHT22;7289;50.706;4.992;2022-10-15T15:37:52;19.80;99.90
14409;DHT22;7289;50.706;4.992;2022-10-15T15:40:21;19.80;99.90
14409;DHT22;7289;50.706;4.992;2022-10-15T15:42:50;19.70;99.90
14409;DHT22;7289;50.706;4.992;2022-10-15T15:45:20;19.60;99.90
14409;DHT22;7289;50.706;4.992;2022-10-15T15:47:49;19.40;99.20
14409;DHT22;7289;50.706;4.992;2022-10-15T15:50:18;19.30;99.80
14409;DHT22;7289;50.706;4.992;2022-10-15T15:52:47;19.20;99.90
14409;DHT22;7289;50.706;4.992;2022-10-15T15:55:15;18.90;99.90
14409;DHT22;7289;50.706;4.992;2022-10-15T15:57:46;18.80;99.90
14409;DHT22;7289;50.706;4.992;2022-10-15T16:00:15;18.70;99.90
14409;DHT22;7289;50.706;4.992;2022-10-15T16:02:43;18.60;99.90
14409;DHT22;7289;50.706;4.992;2022-10-15T16:05:14;18.60;99.90
14409;DHT22;7289;50.706;4.992;2022-10-15T16:07:43;18.50;99.90
14409;DHT22;7289;50.706;4.992;2022-10-15T16:10:11;18.40;99.90
14409;DHT22;7289;50.706;4.992;2022-10-15T16:12:40;18.30;99.90
14409;DHT22;7289;50.706;4.992;2022-10-15T16:15:10;18.30;99.90
14409;DHT22;7289;50.706;4.992;2022-10-15T16:17:41;18.20;99.90
14409;DHT22;7289;50.706;4.992;2022-10-15T16:20:10;18.10;99.90
14409;DHT22;7289;50.706;4.992;2022-10-15T16:22:38;17.90;99.90